sensor_id;sensor_type;location;lat;lon;timestamp;pressure;altitude;pressure_sealevel;temperature;humidity
11077;BME280;5591;42.626;23.380;2024-02-14T06:34:41;94122.69;;;6.53;100.00
11077;BME280;5591;42.626;23.380;2024-02-14T06:37:08;94126.13;;;7.00;100.00
11077;BME280;5591;42.626;23.380;2024-02-14T06:39:34;94138.34;;;6.53;100.00
11077;BME280;5591;42.626;23.380;2024-02-14T06:42:01;94151.16;;;7.17;100.00
11077;BME280;5591;42.626;23.380;2024-02-14T06:44:28;94154.25;;;6.82;100.00
11077;BME280;5591;42.626;23.380;2024-02-14T06:46:55;94148.13;;;6.97;100.00
11077;BME280;5591;42.626;23.380;2024-02-14T06:49:23;94167.28;;;6.82;100.00
11077;BME280;5591;42.626;23.380;2024-02-14T06:51:51;94153.75;;;6.78;100.00
11077;BME280;5591;42.626;23.380;2024-02-14T06:54:17;94164.53;;;6.59;100.00
11077;BME280;5591;42.626;23.380;2024-02-14T06:56:45;94143.00;;;6.65;100.00
11077;BME280;5591;42.626;23.380;2024-02-14T06:59:11;94163.75;;;6.43;100.00
11077;BME280;5591;42.626;23.380;2024-02-14T07:01:38;94164.41;;;6.53;100.00
11077;BME280;5591;42.626;23.380;2024-02-14T07:04:05;94172.50;;;6.82;100.00
11077;BME280;5591;42.626;23.380;2024-02-14T07:06:31;94180.00;;;6.69;100.00
11077;BME280;5591;42.626;23.380;2024-02-14T07:08:59;94187.84;;;6.61;100.00
11077;BME280;5591;42.626;23.380;2024-02-14T07:11:26;94119.88;;;6.70;100.00
11077;BME280;5591;42.626;23.380;2024-02-14T07:13:53;94195.00;;;6.59;100.00
11077;BME280;5591;42.626;23.380;2024-02-14T07:16:19;94189.56;;;7.00;100.00
11077;BME280;5591;42.626;23.380;2024-02-14T07:18:46;94185.50;;;6.90;100.00
11077;BME280;5591;42.626;23.380;2024-02-14T07:21:13;94214.25;;;6.50;100.00
11077;BME280;5591;42.626;23.380;2024-02-14T07:23:39;94169.91;;;6.58;100.00
11077;BME280;5591;42.626;23.380;2024-02-14T07:26:07;94199.91;;;6.54;100.00
11077;BME280;5591;42.626;23.380;2024-02-14T07:28:34;94206.84;;;6.93;100.00
11077;BME280;5591;42.626;23.380;2024-02-14T07:31:01;94220.38;;;6.81;100.00
11077;BME280;5591;42.626;23.380;2024-02-14T07:33:28;94212.22;;;6.92;100.00
11077;BME280;5591;42.626;23.380;2024-02-14T07:35:54;94205.19;;;7.08;100.00
11077;BME280;5591;42.626;23.380;2024-02-14T07:38:21;94220.38;;;6.81;100.00
11077;BME280;5591;42.626;23.380;2024-02-14T07:40:48;94215.28;;;7.11;100.00
11077;BME280;5591;42.626;23.380;2024-02-14T07:43:16;94226.06;;;7.08;100.00
11077;BME280;5591;42.626;23.380;2024-02-14T07:45:43;94227.97;;;7.22;100.00
11077;BME280;5591;42.626;23.380;2024-02-14T07:48:10;94210.72;;;6.97;100.00
11077;BME280;5591;42.626;23.380;2024-02-14T07:50:36;94245.94;;;7.09;100.00
11077;BME280;5591;42.626;23.380;2024-02-14T07:53:03;94224.34;;;6.53;100.00
11077;BME280;5591;42.626;23.380;2024-02-14T07:55:31;94193.44;;;6.96;100.00
11077;BME280;5591;42.626;23.380;2024-02-14T07:57:58;94255.13;;;6.65;100.00
11077;BME280;5591;42.626;23.380;2024-02-14T08:00:27;94238.63;;;7.05;100.00
11077;BME280;5591;42.626;23.380;2024-02-14T08:02:53;94258.84;;;6.87;100.00
11077;BME280;5591;42.626;23.380;2024-02-14T08:05:20;94241.03;;;7.06;100.00
11077;BME280;5591;42.626;23.380;2024-02-14T08:07:47;94238.63;;;7.05;100.00
11077;BME280;5591;42.626;23.380;2024-02-14T08:10:13;94275.03;;;6.58;100.00
11077;BME280;5591;42.626;23.380;2024-02-14T08:12:40;94251.38;;;6.12;100.00
11077;BME280;5591;42.626;23.380;2024-02-14T08:15:07;94226.47;;;6.49;100.00
11077;BME280;5591;42.626;23.380;2024-02-14T08:17:35;94251.06;;;6.63;100.00
11077;BME280;5591;42.626;23.380;2024-02-14T08:20:03;94232.97;;;6.77;100.00
11077;BME280;5591;42.626;23.380;2024-02-14T08:22:30;94248.97;;;6.34;100.00
11077;BME280;5591;42.626;23.380;2024-02-14T08:24:57;94245.00;;;5.98;100.00
11077;BME280;5591;42.626;23.380;2024-02-14T08:27:24;94235.28;;;6.56;100.00
11077;BME280;5591;42.626;23.380;2024-02-14T08:29:51;94268.81;;;6.83;100.00
11077;BME280;5591;42.626;23.380;2024-02-14T08:32:18;94276.97;;;6.72;100.00
11077;BME280;5591;42.626;23.380;2024-02-14T08:34:46;94249.75;;;6.75;100.00
11077;BME280;5591;42.626;23.380;2024-02-14T08:37:13;94246.81;;;6.70;100.00
11077;BME280;5591;42.626;23.380;2024-02-14T08:39:39;94261.16;;;6.74;100.00
11077;BME280;5591;42.626;23.380;2024-02-14T08:42:06;94251.38;;;6.60;100.00
11077;BME280;5591;42.626;23.380;2024-02-14T08:44:33;94239.81;;;6.62;100.00
11077;BME280;5591;42.626;23.380;2024-02-14T08:47:00;94252.19;;;6.68;100.00
11077;BME280;5591;42.626;23.380;2024-02-14T08:49:27;94259.72;;;6.55;100.00
11077;BME280;5591;42.626;23.380;2024-02-14T08:51:55;94273.06;;;6.60;100.00
11077;BME280;5591;42.626;23.380;2024-02-14T08:54:22;94272.38;;;6.98;100.00
11077;BME280;5591;42.626;23.380;2024-02-14T08:56:48;94284.28;;;6.77;100.00
11077;BME280;5591;42.626;23.380;2024-02-14T08:59:15;94278.41;;;6.59;100.00
11077;BME280;5591;42.626;23.380;2024-02-14T09:01:42;94274.69;;;6.53;100.00
11077;BME280;5591;42.626;23.380;2024-02-14T09:04:09;94270.75;;;6.89;100.00
11077;BME280;5591;42.626;23.380;2024-02-14T09:06:36;94281.50;;;7.02;100.00
11077;BME280;5591;42.626;23.380;2024-02-14T09:09:05;94288.16;;;7.13;100.00
11077;BME280;5591;42.626;23.380;2024-02-14T09:11:35;94282.66;;;6.76;100.00
11077;BME280;5591;42.626;23.380;2024-02-14T09:14:02;94299.59;;;7.04;100.00
11077;BME280;5591;42.626;23.380;2024-02-14T09:16:31;94292.44;;;6.90;100.00
11077;BME280;5591;42.626;23.380;2024-02-14T09:18:58;94298.44;;;7.06;100.00
11077;BME280;5591;42.626;23.380;2024-02-14T09:21:26;94308.53;;;7.25;100.00
11077;BME280;5591;42.626;23.380;2024-02-14T09:23:54;94294.38;;;7.04;100.00
11077;BME280;5591;42.626;23.380;2024-02-14T09:26:22;94309.03;;;7.13;100.00
11077;BME280;5591;42.626;23.380;2024-02-14T09:28:48;94306.94;;;6.84;100.00
11077;BME280;5591;42.626;23.380;2024-02-14T09:31:18;94246.13;;;5.96;100.00
11077;BME280;5591;42.626;23.380;2024-02-14T09:33:46;94339.38;;;6.90;100.00
11077;BME280;5591;42.626;23.380;2024-02-14T09:36:13;94292.94;;;6.37;100.00
11077;BME280;5591;42.626;23.380;2024-02-14T09:38:40;94293.28;;;6.58;100.00
11077;BME280;5591;42.626;23.380;2024-02-14T09:41:12;94306.09;;;6.28;100.00
11077;BME280;5591;42.626;23.380;2024-02-14T09:43:44;94295.19;;;6.40;100.00
11077;BME280;5591;42.626;23.380;2024-02-14T09:46:13;94287.41;;;6.56;100.00
11077;BME280;5591;42.626;23.380;2024-02-14T09:48:40;94286.56;;;6.88;100.00
11077;BME280;5591;42.626;23.380;2024-02-14T09:51:10;94279.22;;;6.91;100.00
11077;BME280;5591;42.626;23.380;2024-02-14T09:53:38;94275.00;;;6.98;100.00
11077;BME280;5591;42.626;23.380;2024-02-14T09:56:05;94286.88;;;6.37;100.00
11077;BME280;5591;42.626;23.380;2024-02-14T09:58:34;94281.03;;;6.43;100.00
11077;BME280;5591;42.626;23.380;2024-02-14T10:01:03;94296.69;;;6.43;100.00
11077;BME280;5591;42.626;23.380;2024-02-14T10:03:30;94280.72;;;6.30;100.00
11077;BME280;5591;42.626;23.380;2024-02-14T10:05:57;94279.25;;;6.59;100.00
11077;BME280;5591;42.626;23.380;2024-02-14T10:08:23;94281.69;;;6.29;100.00
11077;BME280;5591;42.626;23.380;2024-02-14T10:10:51;94268.00;;;6.75;100.00
11077;BME280;5591;42.626;23.380;2024-02-14T10:13:18;94275.16;;;6.33;100.00
11077;BME280;5591;42.626;23.380;2024-02-14T10:15:45;94296.19;;;6.79;100.00
11077;BME280;5591;42.626;23.380;2024-02-14T10:18:14;94290.19;;;6.71;100.00
11077;BME280;5591;42.626;23.380;2024-02-14T10:20:52;94300.25;;;6.66;100.00
11077;BME280;5591;42.626;23.380;2024-02-14T10:23:19;94308.75;;;6.76;100.00
11077;BME280;5591;42.626;23.380;2024-02-14T10:25:48;94319.31;;;6.50;100.00
11077;BME280;5591;42.626;23.380;2024-02-14T10:28:15;94315.09;;;6.81;100.00
11077;BME280;5591;42.626;23.380;2024-02-14T10:30:45;94308.53;;;6.29;100.00
11077;BME280;5591;42.626;23.380;2024-02-14T10:33:14;94300.09;;;6.75;100.00
11077;BME280;5591;42.626;23.380;2024-02-14T10:35:41;94225.28;;;5.96;100.00
11077;BME280;5591;42.626;23.380;2024-02-14T10:38:09;94317.66;;;6.25;100.00
11077;BME280;5591;42.626;23.380;2024-02-14T10:40:36;94305.81;;;6.55;100.00
11077;BME280;5591;42.626;23.380;2024-02-14T10:43:04;94304.47;;;6.91;100.00
11077;BME280;5591;42.626;23.380;2024-02-14T10:45:31;94307.75;;;6.69;100.00
11077;BME280;5591;42.626;23.380;2024-02-14T10:48:00;94302.69;;;6.83;100.00
11077;BME280;5591;42.626;23.380;2024-02-14T10:50:33;94303.84;;;6.89;100.00
11077;BME280;5591;42.626;23.380;2024-02-14T10:53:04;94277.59;;;6.90;100.00
11077;BME280;5591;42.626;23.380;2024-02-14T10:55:33;94305.16;;;6.93;100.00
11077;BME280;5591;42.626;23.380;2024-02-14T10:58:01;94298.81;;;6.87;100.00
11077;BME280;5591;42.626;23.380;2024-02-14T11:00:28;94316.53;;;6.92;100.00
11077;BME280;5591;42.626;23.380;2024-02-14T11:02:58;94315.25;;;6.80;100.00
11077;BME280;5591;42.626;23.380;2024-02-14T11:05:26;94252.50;;;6.09;100.00
11077;BME280;5591;42.626;23.380;2024-02-14T11:07:54;94287.69;;;6.21;100.00
11077;BME280;5591;42.626;23.380;2024-02-14T11:10:22;94315.25;;;6.64;100.00
11077;BME280;5591;42.626;23.380;2024-02-14T11:12:49;94229.53;;;6.05;100.00
11077;BME280;5591;42.626;23.380;2024-02-14T11:15:18;94235.59;;;6.29;100.00
11077;BME280;5591;42.626;23.380;2024-02-14T11:17:44;94305.00;;;6.70;100.00
11077;BME280;5591;42.626;23.380;2024-02-14T11:20:14;94322.75;;;6.91;100.00
11077;BME280;5591;42.626;23.380;2024-02-14T11:22:50;94311.84;;;6.87;100.00
11077;BME280;5591;42.626;23.380;2024-02-14T11:25:22;94311.50;;;6.90;100.00
11077;BME280;5591;42.626;23.380;2024-02-14T11:27:50;94260.81;;;6.69;100.00
11077;BME280;5591;42.626;23.380;2024-02-14T11:30:27;94315.59;;;6.85;100.00
11077;BME280;5591;42.626;23.380;2024-02-14T11:32:54;94292.28;;;6.51;100.00
11077;BME280;5591;42.626;23.380;2024-02-14T11:35:21;94299.75;;;6.54;100.00
11077;BME280;5591;42.626;23.380;2024-02-14T11:37:52;94266.38;;;6.58;100.00
11077;BME280;5591;42.626;23.380;2024-02-14T11:40:20;94304.97;;;6.86;100.00
11077;BME280;5591;42.626;23.380;2024-02-14T11:42:47;94302.38;;;7.02;100.00
11077;BME280;5591;42.626;23.380;2024-02-14T11:45:14;94294.38;;;6.96;100.00
11077;BME280;5591;42.626;23.380;2024-02-14T11:47:40;94312.81;;;6.62;100.00
11077;BME280;5591;42.626;23.380;2024-02-14T11:50:08;94305.78;;;6.47;100.00
11077;BME280;5591;42.626;23.380;2024-02-14T11:52:36;94297.31;;;6.37;100.00
11077;BME280;5591;42.626;23.380;2024-02-14T11:55:03;94280.22;;;6.50;100.00
11077;BME280;5591;42.626;23.380;2024-02-14T11:57:31;94298.78;;;6.63;100.00
11077;BME280;5591;42.626;23.380;2024-02-14T11:59:58;94300.09;;;6.83;100.00
11077;BME280;5591;42.626;23.380;2024-02-14T12:02:24;94286.72;;;6.38;100.00
11077;BME280;5591;42.626;23.380;2024-02-14T12:04:51;94305.78;;;6.31;100.00
11077;BME280;5591;42.626;23.380;2024-02-14T12:07:19;94196.03;;;6.18;100.00
11077;BME280;5591;42.626;23.380;2024-02-14T12:09:46;94287.84;;;6.92;100.00
11077;BME280;5591;42.626;23.380;2024-02-14T12:12:14;94291.31;;;6.68;100.00
11077;BME280;5591;42.626;23.380;2024-02-14T12:14:44;94303.22;;;6.63;100.00
11077;BME280;5591;42.626;23.380;2024-02-14T12:17:15;94302.06;;;6.49;100.00
11077;BME280;5591;42.626;23.380;2024-02-14T12:19:44;94309.53;;;6.92;100.00
11077;BME280;5591;42.626;23.380;2024-02-14T12:22:11;94294.06;;;6.75;100.00
11077;BME280;5591;42.626;23.380;2024-02-14T12:24:43;94297.50;;;6.99;100.00
11077;BME280;5591;42.626;23.380;2024-02-14T12:27:09;94291.94;;;6.62;100.00
11077;BME280;5591;42.626;23.380;2024-02-14T12:29:36;94289.19;;;6.64;100.00
11077;BME280;5591;42.626;23.380;2024-02-14T12:32:05;94290.47;;;6.68;100.00
11077;BME280;5591;42.626;23.380;2024-02-14T12:34:32;94278.03;;;7.18;100.00
11077;BME280;5591;42.626;23.380;2024-02-14T12:36:59;94300.63;;;7.49;100.00
11077;BME280;5591;42.626;23.380;2024-02-14T12:39:26;94258.44;;;7.29;100.00
11077;BME280;5591;42.626;23.380;2024-02-14T12:41:54;94293.06;;;7.08;100.00
11077;BME280;5591;42.626;23.380;2024-02-14T12:44:21;94293.06;;;6.92;100.00
11077;BME280;5591;42.626;23.380;2024-02-14T12:46:48;94294.09;;;7.53;100.00
11077;BME280;5591;42.626;23.380;2024-02-14T12:49:16;94300.75;;;7.55;100.00
11077;BME280;5591;42.626;23.380;2024-02-14T12:51:42;94306.44;;;7.67;100.00
11077;BME280;5591;42.626;23.380;2024-02-14T12:54:09;94313.03;;;7.55;100.00
11077;BME280;5591;42.626;23.380;2024-02-14T12:56:37;94311.00;;;7.11;100.00
11077;BME280;5591;42.626;23.380;2024-02-14T12:59:04;94307.63;;;7.56;100.00
11077;BME280;5591;42.626;23.380;2024-02-14T13:01:31;94298.69;;;7.43;100.00
11077;BME280;5591;42.626;23.380;2024-02-14T13:03:58;94327.63;;;7.10;100.00
11077;BME280;5591;42.626;23.380;2024-02-14T13:06:27;94318.13;;;7.32;100.00
11077;BME280;5591;42.626;23.380;2024-02-14T13:08:54;94325.66;;;7.35;100.00
11077;BME280;5591;42.626;23.380;2024-02-14T13:11:21;94331.44;;;7.53;100.00
11077;BME280;5591;42.626;23.380;2024-02-14T13:13:47;94322.75;;;7.69;98.38
11077;BME280;5591;42.626;23.380;2024-02-14T13:16:14;94329.69;;;7.46;98.89
11077;BME280;5591;42.626;23.380;2024-02-14T13:18:41;94331.81;;;7.42;98.75
11077;BME280;5591;42.626;23.380;2024-02-14T13:21:08;94317.97;;;7.42;96.90
11077;BME280;5591;42.626;23.380;2024-02-14T13:23:37;94324.97;;;7.41;97.79
11077;BME280;5591;42.626;23.380;2024-02-14T13:26:05;94313.63;;;8.03;94.44
11077;BME280;5591;42.626;23.380;2024-02-14T13:28:33;94336.31;;;8.19;92.78
11077;BME280;5591;42.626;23.380;2024-02-14T13:31:00;94329.06;;;7.36;95.79
11077;BME280;5591;42.626;23.380;2024-02-14T13:33:27;94341.81;;;7.31;96.25
11077;BME280;5591;42.626;23.380;2024-02-14T13:35:53;94316.63;;;7.46;96.03
11077;BME280;5591;42.626;23.380;2024-02-14T13:38:20;94332.91;;;7.56;96.22
11077;BME280;5591;42.626;23.380;2024-02-14T13:40:48;94324.56;;;7.68;94.95
11077;BME280;5591;42.626;23.380;2024-02-14T13:43:15;94332.66;;;7.89;94.22
11077;BME280;5591;42.626;23.380;2024-02-14T13:45:43;94333.13;;;8.31;90.82
11077;BME280;5591;42.626;23.380;2024-02-14T13:48:11;94304.69;;;7.98;90.81
11077;BME280;5591;42.626;23.380;2024-02-14T13:50:38;94337.78;;;8.05;92.19
11077;BME280;5591;42.626;23.380;2024-02-14T13:53:06;94335.69;;;8.01;91.41
11077;BME280;5591;42.626;23.380;2024-02-14T13:55:33;94338.75;;;7.74;92.56
11077;BME280;5591;42.626;23.380;2024-02-14T13:58:01;94326.34;;;8.06;91.04
11077;BME280;5591;42.626;23.380;2024-02-14T14:00:28;94342.81;;;7.76;92.90
11077;BME280;5591;42.626;23.380;2024-02-14T14:02:55;94336.41;;;7.87;91.73
11077;BME280;5591;42.626;23.380;2024-02-14T14:05:22;94332.19;;;8.16;90.67
11077;BME280;5591;42.626;23.380;2024-02-14T14:07:49;94320.94;;;8.16;89.53
11077;BME280;5591;42.626;23.380;2024-02-14T14:10:15;94335.97;;;8.52;88.60
11077;BME280;5591;42.626;23.380;2024-02-14T14:12:42;94330.28;;;8.41;87.70
11077;BME280;5591;42.626;23.380;2024-02-14T14:15:10;94337.25;;;8.26;89.07
11077;BME280;5591;42.626;23.380;2024-02-14T14:17:37;94344.22;;;8.33;87.63
11077;BME280;5591;42.626;23.380;2024-02-14T14:20:04;94339.22;;;8.54;87.08
11077;BME280;5591;42.626;23.380;2024-02-14T14:22:33;94340.19;;;8.23;86.59
11077;BME280;5591;42.626;23.380;2024-02-14T14:25:00;94344.91;;;7.81;90.04
11077;BME280;5591;42.626;23.380;2024-02-14T14:27:28;94257.31;;;7.70;88.39
11077;BME280;5591;42.626;23.380;2024-02-14T14:29:54;94348.84;;;8.23;88.85
11077;BME280;5591;42.626;23.380;2024-02-14T14:32:22;94350.78;;;8.29;85.80
11077;BME280;5591;42.626;23.380;2024-02-14T14:34:49;94343.25;;;8.57;84.93
11077;BME280;5591;42.626;23.380;2024-02-14T14:37:16;94354.34;;;8.36;84.73
11077;BME280;5591;42.626;23.380;2024-02-14T14:39:42;94358.16;;;8.18;84.71
11077;BME280;5591;42.626;23.380;2024-02-14T14:42:10;94359.00;;;8.18;84.74
11077;BME280;5591;42.626;23.380;2024-02-14T14:44:37;94360.69;;;8.03;85.02
11077;BME280;5591;42.626;23.380;2024-02-14T14:47:05;94364.66;;;7.83;84.72
11077;BME280;5591;42.626;23.380;2024-02-14T14:49:33;94365.13;;;7.95;85.27
11077;BME280;5591;42.626;23.380;2024-02-14T14:51:59;94360.69;;;8.03;85.14
11077;BME280;5591;42.626;23.380;2024-02-14T14:54:29;94365.41;;;8.08;84.53
11077;BME280;5591;42.626;23.380;2024-02-14T14:56:56;94365.13;;;8.41;82.96
11077;BME280;5591;42.626;23.380;2024-02-14T14:59:22;94367.91;;;7.93;83.66
11077;BME280;5591;42.626;23.380;2024-02-14T15:01:49;94368.16;;;8.06;85.42
11077;BME280;5591;42.626;23.380;2024-02-14T15:04:16;94376.91;;;8.29;84.32
11077;BME280;5591;42.626;23.380;2024-02-14T15:06:44;94373.53;;;8.51;82.57
11077;BME280;5591;42.626;23.380;2024-02-14T15:09:12;94375.06;;;7.99;85.16
11077;BME280;5591;42.626;23.380;2024-02-14T15:11:39;94373.59;;;8.66;82.17
11077;BME280;5591;42.626;23.380;2024-02-14T15:14:06;94372.25;;;8.09;84.21
11077;BME280;5591;42.626;23.380;2024-02-14T15:16:33;94379.25;;;8.08;84.66
11077;BME280;5591;42.626;23.380;2024-02-14T15:18:59;94379.13;;;8.02;84.82
11077;BME280;5591;42.626;23.380;2024-02-14T15:21:26;94379.84;;;8.34;83.89
11077;BME280;5591;42.626;23.380;2024-02-14T15:23:54;94382.06;;;8.07;85.37
11077;BME280;5591;42.626;23.380;2024-02-14T15:26:21;94353.59;;;8.12;83.78
11077;BME280;5591;42.626;23.380;2024-02-14T15:28:50;94384.31;;;8.26;84.60
11077;BME280;5591;42.626;23.380;2024-02-14T15:31:24;94386.69;;;8.35;84.48
11077;BME280;5591;42.626;23.380;2024-02-14T15:34:13;94335.53;;;8.02;81.46
11077;BME280;5591;42.626;23.380;2024-02-14T15:36:40;94388.97;;;8.38;82.94
11077;BME280;5591;42.626;23.380;2024-02-14T15:39:08;94392.66;;;8.13;84.81
11077;BME280;5591;42.626;23.380;2024-02-14T15:41:35;94420.25;;;8.16;83.96
11077;BME280;5591;42.626;23.380;2024-02-14T15:44:02;94403.78;;;8.46;82.53
11077;BME280;5591;42.626;23.380;2024-02-14T15:46:30;94408.34;;;8.21;83.08
11077;BME280;5591;42.626;23.380;2024-02-14T15:48:57;94405.16;;;8.34;84.06
11077;BME280;5591;42.626;23.380;2024-02-14T15:51:24;94417.06;;;7.90;83.80
11077;BME280;5591;42.626;23.380;2024-02-14T15:53:52;94391.69;;;7.36;84.69
11077;BME280;5591;42.626;23.380;2024-02-14T15:56:20;94405.75;;;7.97;83.63
11077;BME280;5591;42.626;23.380;2024-02-14T15:58:47;94415.56;;;7.95;83.67
11077;BME280;5591;42.626;23.380;2024-02-14T16:01:14;94433.91;;;8.42;81.61
11077;BME280;5591;42.626;23.380;2024-02-14T16:03:42;94428.97;;;7.92;82.88
11077;BME280;5591;42.626;23.380;2024-02-14T16:06:09;94438.25;;;8.03;83.12
11077;BME280;5591;42.626;23.380;2024-02-14T16:08:35;94440.13;;;7.78;84.05
11077;BME280;5591;42.626;23.380;2024-02-14T16:11:02;94441.81;;;8.10;83.33
11077;BME280;5591;42.626;23.380;2024-02-14T16:13:30;94439.00;;;7.73;84.55
11077;BME280;5591;42.626;23.380;2024-02-14T16:15:58;94447.28;;;7.84;83.86
11077;BME280;5591;42.626;23.380;2024-02-14T16:18:24;94470.50;;;7.71;83.70
11077;BME280;5591;42.626;23.380;2024-02-14T16:20:50;94461.13;;;7.93;81.78
11077;BME280;5591;42.626;23.380;2024-02-14T16:23:18;94419.75;;;7.18;82.56
11077;BME280;5591;42.626;23.380;2024-02-14T16:25:44;94460.53;;;7.59;84.06
11077;BME280;5591;42.626;23.380;2024-02-14T16:28:13;94470.78;;;7.76;83.37
11077;BME280;5591;42.626;23.380;2024-02-14T16:30:41;94469.50;;;7.72;83.04
11077;BME280;5591;42.626;23.380;2024-02-14T16:33:07;94485.47;;;7.93;81.15
11077;BME280;5591;42.626;23.380;2024-02-14T16:35:34;94482.91;;;7.61;82.92
11077;BME280;5591;42.626;23.380;2024-02-14T16:38:01;94477.69;;;7.69;82.79
11077;BME280;5591;42.626;23.380;2024-02-14T16:40:28;94485.34;;;7.47;85.63
11077;BME280;5591;42.626;23.380;2024-02-14T16:42:56;94497.41;;;7.48;84.72
11077;BME280;5591;42.626;23.380;2024-02-14T16:45:24;94484.19;;;7.73;82.74
11077;BME280;5591;42.626;23.380;2024-02-14T16:47:52;94496.56;;;7.23;86.44
11077;BME280;5591;42.626;23.380;2024-02-14T16:50:18;94497.44;;;7.32;85.89
11077;BME280;5591;42.626;23.380;2024-02-14T16:52:45;94502.97;;;7.45;84.66
11077;BME280;5591;42.626;23.380;2024-02-14T16:55:12;94474.41;;;7.28;84.27
11077;BME280;5591;42.626;23.380;2024-02-14T16:57:39;94506.06;;;7.32;85.13
11077;BME280;5591;42.626;23.380;2024-02-14T17:00:06;94480.56;;;6.87;85.15
11077;BME280;5591;42.626;23.380;2024-02-14T17:02:34;94511.28;;;7.17;84.73
11077;BME280;5591;42.626;23.380;2024-02-14T17:05:06;94498.91;;;7.34;84.79
11077;BME280;5591;42.626;23.380;2024-02-14T17:07:33;94498.53;;;7.22;85.45
11077;BME280;5591;42.626;23.380;2024-02-14T17:10:00;94502.63;;;7.48;83.11
11077;BME280;5591;42.626;23.380;2024-02-14T17:12:27;94508.34;;;7.20;84.62
11077;BME280;5591;42.626;23.380;2024-02-14T17:14:53;94476.59;;;6.67;86.88
11077;BME280;5591;42.626;23.380;2024-02-14T17:17:21;94517.28;;;7.01;87.29
11077;BME280;5591;42.626;23.380;2024-02-14T17:19:48;94518.63;;;7.45;86.66
11077;BME280;5591;42.626;23.380;2024-02-14T17:22:17;94505.25;;;7.48;84.25
11077;BME280;5591;42.626;23.380;2024-02-14T17:24:43;94507.19;;;7.38;84.87
11077;BME280;5591;42.626;23.380;2024-02-14T17:27:10;94508.91;;;6.82;85.93
11077;BME280;5591;42.626;23.380;2024-02-14T17:29:37;94523.75;;;6.89;88.09
11077;BME280;5591;42.626;23.380;2024-02-14T17:32:05;94466.88;;;7.01;86.05
11077;BME280;5591;42.626;23.380;2024-02-14T17:34:32;94517.81;;;7.28;84.38
11077;BME280;5591;42.626;23.380;2024-02-14T17:36:59;94500.63;;;7.02;85.89
11077;BME280;5591;42.626;23.380;2024-02-14T17:39:27;94522.13;;;6.88;85.93
11077;BME280;5591;42.626;23.380;2024-02-14T17:41:54;94507.50;;;7.03;86.96
11077;BME280;5591;42.626;23.380;2024-02-14T17:44:20;94507.50;;;7.11;85.21
11077;BME280;5591;42.626;23.380;2024-02-14T17:46:47;94510.59;;;6.49;87.82
11077;BME280;5591;42.626;23.380;2024-02-14T17:49:14;94497.97;;;6.78;87.18
11077;BME280;5591;42.626;23.380;2024-02-14T17:51:42;94512.00;;;6.85;87.00
11077;BME280;5591;42.626;23.380;2024-02-14T17:54:13;94511.41;;;6.99;86.95
11077;BME280;5591;42.626;23.380;2024-02-14T17:56:41;94507.97;;;6.99;87.07
11077;BME280;5591;42.626;23.380;2024-02-14T17:59:08;94456.44;;;6.93;84.09
11077;BME280;5591;42.626;23.380;2024-02-14T18:01:34;94515.81;;;7.07;84.17
11077;BME280;5591;42.626;23.380;2024-02-14T18:04:02;94504.34;;;6.92;85.02
11077;BME280;5591;42.626;23.380;2024-02-14T18:06:30;94508.00;;;7.22;83.77
11077;BME280;5591;42.626;23.380;2024-02-14T18:08:56;94437.81;;;6.64;84.55
11077;BME280;5591;42.626;23.380;2024-02-14T18:11:24;94512.56;;;7.13;85.77
11077;BME280;5591;42.626;23.380;2024-02-14T18:13:52;94513.97;;;6.91;85.27
11077;BME280;5591;42.626;23.380;2024-02-14T18:16:19;94517.94;;;7.11;84.71
11077;BME280;5591;42.626;23.380;2024-02-14T18:18:46;94514.84;;;7.08;84.64
11077;BME280;5591;42.626;23.380;2024-02-14T18:21:13;94510.91;;;6.96;84.36
11077;BME280;5591;42.626;23.380;2024-02-14T18:23:40;94535.19;;;6.88;86.08
11077;BME280;5591;42.626;23.380;2024-02-14T18:26:06;94496.88;;;6.97;85.39
11077;BME280;5591;42.626;23.380;2024-02-14T18:28:36;94524.50;;;7.31;83.24
11077;BME280;5591;42.626;23.380;2024-02-14T18:31:04;94558.16;;;6.51;86.08
11077;BME280;5591;42.626;23.380;2024-02-14T18:33:35;94533.25;;;6.57;86.45
11077;BME280;5591;42.626;23.380;2024-02-14T18:36:03;94524.66;;;7.14;85.44
11077;BME280;5591;42.626;23.380;2024-02-14T18:38:30;94532.38;;;6.40;88.53
11077;BME280;5591;42.626;23.380;2024-02-14T18:40:58;94529.84;;;6.64;88.54
11077;BME280;5591;42.626;23.380;2024-02-14T18:43:25;94532.41;;;6.48;89.76
11077;BME280;5591;42.626;23.380;2024-02-14T18:45:52;94533.53;;;6.87;87.68
11077;BME280;5591;42.626;23.380;2024-02-14T18:48:20;94543.69;;;6.98;85.53
11077;BME280;5591;42.626;23.380;2024-02-14T18:50:47;94547.25;;;6.22;88.78
11077;BME280;5591;42.626;23.380;2024-02-14T18:53:14;94543.97;;;6.46;89.83
11077;BME280;5591;42.626;23.380;2024-02-14T18:55:40;94557.50;;;6.49;89.23
11077;BME280;5591;42.626;23.380;2024-02-14T18:58:07;94544.06;;;6.70;87.80
11077;BME280;5591;42.626;23.380;2024-02-14T19:00:34;94530.31;;;6.52;88.25
11077;BME280;5591;42.626;23.380;2024-02-14T19:03:01;94550.19;;;6.94;86.06
11077;BME280;5591;42.626;23.380;2024-02-14T19:05:30;94563.00;;;6.38;90.21
11077;BME280;5591;42.626;23.380;2024-02-14T19:07:56;94545.34;;;6.66;88.47
11077;BME280;5591;42.626;23.380;2024-02-14T19:10:23;94557.38;;;6.59;86.86
11077;BME280;5591;42.626;23.380;2024-02-14T19:12:50;94558.56;;;6.31;91.22
11077;BME280;5591;42.626;23.380;2024-02-14T19:15:17;94555.91;;;6.56;88.58
11077;BME280;5591;42.626;23.380;2024-02-14T19:17:45;94560.13;;;6.99;86.21
11077;BME280;5591;42.626;23.380;2024-02-14T19:20:13;94561.25;;;6.88;87.35
11077;BME280;5591;42.626;23.380;2024-02-14T19:22:41;94503.41;;;6.10;88.66
11077;BME280;5591;42.626;23.380;2024-02-14T19:25:10;94565.22;;;6.33;90.55
11077;BME280;5591;42.626;23.380;2024-02-14T19:27:37;94560.53;;;6.70;87.31
11077;BME280;5591;42.626;23.380;2024-02-14T19:30:04;94562.06;;;6.22;90.06
11077;BME280;5591;42.626;23.380;2024-02-14T19:32:31;94572.25;;;6.33;90.01
11077;BME280;5591;42.626;23.380;2024-02-14T19:35:01;94573.13;;;6.49;88.65
11077;BME280;5591;42.626;23.380;2024-02-14T19:37:28;94561.81;;;6.33;90.03
11077;BME280;5591;42.626;23.380;2024-02-14T19:39:56;94575.09;;;5.96;92.26